createdAt,value
2022-08-30T00:01:32.719Z,23.39
2022-08-30T00:04:07.270Z,23.37
2022-08-30T00:06:39.583Z,23.30
2022-08-30T00:09:12.426Z,23.23
2022-08-30T00:11:45.515Z,23.19
2022-08-30T00:14:18.021Z,23.18
2022-08-30T00:16:52.160Z,23.12
2022-08-30T00:19:25.242Z,23.05
2022-08-30T00:21:58.035Z,23.00
2022-08-30T00:24:30.914Z,23.01
2022-08-30T00:27:04.575Z,23.04
2022-08-30T00:29:38.164Z,23.01
2022-08-30T00:32:12.390Z,23.04
2022-08-30T00:34:45.062Z,23.05
2022-08-30T00:37:17.641Z,23.01
2022-08-30T00:39:50.929Z,22.95
2022-08-30T00:42:23.500Z,22.89
2022-08-30T00:44:56.286Z,22.84
2022-08-30T00:47:29.232Z,22.83
2022-08-30T00:50:01.758Z,22.77
2022-08-30T00:52:35.690Z,22.74
2022-08-30T00:55:09.066Z,22.74
2022-08-30T00:57:44.542Z,22.68
2022-08-30T01:00:19.155Z,22.63
2022-08-30T01:05:25.419Z,22.51
2022-08-30T01:07:58.030Z,22.44
2022-08-30T01:10:31.147Z,22.40
2022-08-30T01:13:03.587Z,22.41
2022-08-30T01:15:36.145Z,22.38
2022-08-30T01:18:10.475Z,22.34
2022-08-30T01:21:13.237Z,22.32
2022-08-30T01:23:47.490Z,22.33
2022-08-30T01:26:21.980Z,22.30
2022-08-30T01:28:58.066Z,22.23
2022-08-30T01:31:31.505Z,22.19
2022-08-30T01:34:07.498Z,22.17
2022-08-30T01:36:44.702Z,22.16
2022-08-30T01:39:19.950Z,22.12
2022-08-30T01:41:53.135Z,22.09
2022-08-30T01:44:26.004Z,22.06
2022-08-30T01:46:58.959Z,22.04
2022-08-30T01:49:33.354Z,22.05
2022-08-30T01:52:07.308Z,22.04
2022-08-30T01:54:42.024Z,22.02
2022-08-30T01:57:17.919Z,22.07
2022-08-30T01:59:51.018Z,22.12
2022-08-30T02:02:27.048Z,22.11
2022-08-30T02:04:59.633Z,22.15
2022-08-30T02:07:32.646Z,22.08
2022-08-30T02:10:06.142Z,21.99
2022-08-30T02:12:39.466Z,21.95
2022-08-30T02:15:13.165Z,21.93
2022-08-30T02:17:47.760Z,21.88
2022-08-30T02:20:19.948Z,21.88
2022-08-30T02:22:52.203Z,21.93
2022-08-30T02:25:25.937Z,21.94
2022-08-30T02:27:59.187Z,22.00
2022-08-30T02:30:32.087Z,22.01
2022-08-30T02:33:04.809Z,21.95
2022-08-30T02:35:39.462Z,21.90
2022-08-30T02:38:13.175Z,21.83
2022-08-30T02:40:46.169Z,21.74
2022-08-30T02:43:19.004Z,21.67
2022-08-30T02:45:51.920Z,21.60
2022-08-30T02:48:25.805Z,21.51
2022-08-30T02:50:59.280Z,21.43
2022-08-30T02:53:32.107Z,21.38
2022-08-30T02:56:04.766Z,21.32
2022-08-30T02:58:38.702Z,21.30
2022-08-30T03:01:13.903Z,21.27
2022-08-30T03:03:47.275Z,21.22
2022-08-30T03:06:20.019Z,21.20
2022-08-30T03:08:53.751Z,21.17
2022-08-30T03:11:26.276Z,21.14
2022-08-30T03:13:59.392Z,21.12
2022-08-30T03:16:32.649Z,21.09
2022-08-30T03:19:07.755Z,21.03
2022-08-30T03:21:40.772Z,20.94
2022-08-30T03:24:13.814Z,20.88
2022-08-30T03:26:47.026Z,20.84
2022-08-30T03:29:19.784Z,20.78
2022-08-30T03:31:53.761Z,20.72
2022-08-30T03:34:27.287Z,20.70
2022-08-30T03:37:02.050Z,20.76
2022-08-30T03:39:34.816Z,20.80
2022-08-30T03:42:07.931Z,20.82
2022-08-30T03:44:41.258Z,20.82
2022-08-30T03:47:14.818Z,20.78
2022-08-30T03:49:47.267Z,20.71
2022-08-30T03:52:19.762Z,20.66
2022-08-30T03:54:52.308Z,20.69
2022-08-30T03:57:25.864Z,20.75
2022-08-30T03:59:59.223Z,20.74
2022-08-30T04:02:32.391Z,20.77
2022-08-30T04:05:05.487Z,20.84
2022-08-30T04:07:38.303Z,20.82
2022-08-30T04:10:11.188Z,20.72
2022-08-30T04:12:49.359Z,20.58
2022-08-30T04:15:28.321Z,20.46
2022-08-30T04:18:02.735Z,20.46
2022-08-30T04:20:35.427Z,20.51
2022-08-30T04:23:13.733Z,20.49
2022-08-30T04:25:46.503Z,20.49
2022-08-30T04:28:20.044Z,20.53
2022-08-30T04:30:52.597Z,20.53
2022-08-30T04:33:25.356Z,20.53
2022-08-30T04:36:00.797Z,20.55
2022-08-30T04:38:34.218Z,20.61
2022-08-30T04:41:37.959Z,20.71
2022-08-30T04:44:19.075Z,20.85
2022-08-30T04:46:44.945Z,21.00
2022-08-30T04:49:17.330Z,21.08
2022-08-30T04:51:50.000Z,21.12
2022-08-30T04:54:22.546Z,21.20
2022-08-30T04:56:55.068Z,21.22
2022-08-30T04:59:28.522Z,21.23
2022-08-30T05:02:01.597Z,21.37
2022-08-30T05:04:34.326Z,21.44
2022-08-30T05:08:54.223Z,21.55
2022-08-30T05:11:28.620Z,21.49
2022-08-30T05:14:01.647Z,21.55
2022-08-30T05:16:35.400Z,21.65
2022-08-30T05:19:08.226Z,21.68
2022-08-30T05:21:41.290Z,21.76
2022-08-30T05:24:14.063Z,21.88
2022-08-30T05:29:21.442Z,22.00
2022-08-30T05:31:53.914Z,22.11
2022-08-30T05:34:27.779Z,22.17
2022-08-30T05:37:00.209Z,22.21
2022-08-30T05:39:51.506Z,22.33
2022-08-30T05:42:09.722Z,22.56
2022-08-30T05:44:44.347Z,22.93
2022-08-30T05:47:17.045Z,23.30
2022-08-30T05:49:50.008Z,23.63
2022-08-30T05:52:22.397Z,23.96
2022-08-30T05:55:03.543Z,24.15
2022-08-30T05:57:41.355Z,24.37
2022-08-30T06:00:18.159Z,24.58
2022-08-30T06:02:54.831Z,24.71
2022-08-30T06:05:27.607Z,24.85
2022-08-30T06:08:00.092Z,25.03
2022-08-30T06:10:33.302Z,25.18
2022-08-30T06:13:06.616Z,25.32
2022-08-30T06:15:39.802Z,25.59
2022-08-30T06:18:13.455Z,25.97
2022-08-30T06:20:51.399Z,26.39
2022-08-30T06:23:24.859Z,26.73
2022-08-30T06:25:58.632Z,26.81
2022-08-30T06:28:32.464Z,26.86
2022-08-30T06:31:10.637Z,26.87
2022-08-30T06:33:44.395Z,26.85
2022-08-30T06:36:24.794Z,26.78
2022-08-30T06:38:58.395Z,26.87
2022-08-30T06:41:32.985Z,26.85
2022-08-30T06:44:06.047Z,26.77
2022-08-30T06:46:39.581Z,26.83
2022-08-30T06:49:12.836Z,26.93
2022-08-30T06:51:45.871Z,27.10
2022-08-30T06:54:18.241Z,27.48
2022-08-30T06:56:59.104Z,27.73
2022-08-30T06:59:26.212Z,27.79
2022-08-30T07:01:59.527Z,27.74
2022-08-30T07:04:33.454Z,27.76
2022-08-30T07:07:06.227Z,27.97
2022-08-30T07:09:40.896Z,28.16
2022-08-30T07:12:15.314Z,28.25
2022-08-30T07:14:48.066Z,28.31
2022-08-30T07:17:25.529Z,28.40
2022-08-30T07:19:57.898Z,28.79
2022-08-30T07:22:30.340Z,29.21
2022-08-30T07:25:02.929Z,29.27
2022-08-30T07:27:37.725Z,29.18
2022-08-30T07:30:11.681Z,29.10
2022-08-30T07:32:44.525Z,29.05
2022-08-30T07:35:17.510Z,29.08
2022-08-30T07:37:50.633Z,29.27
2022-08-30T07:40:23.609Z,29.37
2022-08-30T07:42:57.269Z,29.68
2022-08-30T07:45:31.660Z,29.99
2022-08-30T07:48:04.579Z,30.08
2022-08-30T07:50:37.378Z,30.34
2022-08-30T07:53:11.266Z,30.57
2022-08-30T07:55:44.615Z,30.72
2022-08-30T07:58:18.106Z,30.76
2022-08-30T08:00:51.556Z,30.83
2022-08-30T08:03:25.146Z,30.75
2022-08-30T08:05:57.473Z,30.48
2022-08-30T08:08:30.383Z,30.44
2022-08-30T08:11:20.388Z,30.54
2022-08-30T08:13:54.592Z,30.59
2022-08-30T08:16:29.185Z,30.66
2022-08-30T08:19:01.587Z,30.96
2022-08-30T08:21:35.187Z,31.24
2022-08-30T08:24:07.819Z,31.35
2022-08-30T08:26:41.913Z,31.31
2022-08-30T08:29:15.768Z,31.05
2022-08-30T08:31:48.249Z,31.06
2022-08-30T08:34:22.982Z,31.22
2022-08-30T08:36:54.704Z,31.52
2022-08-30T08:39:27.805Z,31.50
2022-08-30T08:42:08.141Z,31.32
2022-08-30T08:44:57.902Z,30.84
2022-08-30T08:47:42.156Z,30.51
2022-08-30T08:50:22.622Z,30.52
2022-08-30T08:53:45.474Z,30.73
2022-08-30T08:55:56.871Z,30.82
2022-08-30T08:58:48.293Z,30.77
2022-08-30T09:01:24.109Z,30.86
2022-08-30T09:03:58.419Z,30.69
2022-08-30T09:06:59.805Z,30.79
2022-08-30T09:09:36.369Z,31.01
2022-08-30T09:12:11.081Z,31.43
2022-08-30T09:14:54.433Z,31.41
2022-08-30T09:17:27.115Z,31.44
2022-08-30T09:20:02.692Z,31.68
2022-08-30T09:22:39.283Z,31.75
2022-08-30T09:25:27.025Z,32.00
2022-08-30T09:28:14.751Z,32.16
2022-08-30T09:31:12.535Z,32.15
2022-08-30T09:34:07.001Z,32.25
2022-08-30T09:36:51.561Z,32.40
2022-08-30T09:39:35.650Z,32.26
2022-08-30T09:42:25.991Z,32.26
2022-08-30T09:45:00.529Z,32.30
2022-08-30T09:47:35.286Z,32.41
2022-08-30T09:50:18.081Z,32.35
2022-08-30T09:53:09.975Z,32.33
2022-08-30T09:56:00.860Z,32.35
2022-08-30T09:58:50.153Z,32.21
2022-08-30T10:01:27.198Z,32.18
2022-08-30T10:04:18.577Z,32.08
2022-08-30T10:07:01.405Z,32.04
2022-08-30T10:09:51.051Z,32.19
2022-08-30T10:12:37.518Z,32.34
2022-08-30T10:15:38.321Z,32.53
2022-08-30T10:18:26.393Z,32.63
2022-08-30T10:21:19.046Z,32.58
2022-08-30T10:23:59.989Z,32.61
2022-08-30T10:26:46.224Z,32.84
2022-08-30T10:29:31.416Z,33.32
2022-08-30T10:32:18.110Z,33.80
2022-08-30T10:35:05.028Z,34.06
2022-08-30T10:37:50.411Z,34.00
2022-08-30T10:40:55.410Z,33.80
2022-08-30T10:43:51.264Z,33.61
2022-08-30T10:46:55.576Z,33.58
2022-08-30T10:49:30.139Z,33.67
2022-08-30T10:52:38.405Z,33.44
2022-08-30T10:55:24.393Z,33.30
2022-08-30T10:58:03.189Z,33.60
2022-08-30T11:00:44.018Z,33.80
2022-08-30T11:03:33.130Z,33.90
2022-08-30T11:06:30.110Z,33.80
2022-08-30T11:09:35.912Z,33.40
2022-08-30T11:12:19.919Z,33.04
2022-08-30T11:14:54.186Z,33.05
2022-08-30T11:17:35.237Z,33.18
2022-08-30T11:20:25.297Z,33.31
2022-08-30T11:23:30.554Z,33.44
2022-08-30T11:26:13.983Z,33.52
2022-08-30T11:28:52.988Z,33.50
2022-08-30T11:31:38.388Z,33.62
2022-08-30T11:34:12.908Z,33.71
2022-08-30T11:36:56.259Z,33.65
2022-08-30T11:39:50.246Z,33.37
2022-08-30T11:42:32.747Z,33.27
2022-08-30T11:45:29.583Z,33.13
2022-08-30T11:48:10.155Z,33.29
2022-08-30T11:50:56.443Z,33.52
2022-08-30T11:54:00.519Z,33.80
2022-08-30T11:56:56.750Z,34.03
2022-08-30T11:59:49.292Z,34.21
2022-08-30T12:02:52.263Z,34.03
2022-08-30T12:05:51.480Z,33.89
2022-08-30T12:08:38.813Z,33.75
2022-08-30T12:11:19.791Z,33.76
2022-08-30T12:13:53.963Z,33.58
2022-08-30T12:16:45.898Z,33.35
2022-08-30T12:19:21.286Z,33.26
2022-08-30T12:21:59.393Z,33.19
2022-08-30T12:24:40.401Z,33.16
2022-08-30T12:27:34.172Z,33.00
2022-08-30T12:30:10.046Z,32.83
2022-08-30T12:32:48.750Z,32.76
2022-08-30T12:35:28.345Z,32.70
2022-08-30T12:38:07.649Z,32.37
2022-08-30T12:40:41.720Z,31.85
2022-08-30T12:43:25.011Z,31.47
2022-08-30T12:46:07.502Z,31.08
2022-08-30T12:48:39.847Z,30.69
2022-08-30T12:51:15.084Z,30.57
2022-08-30T12:53:51.389Z,30.48
2022-08-30T12:56:40.628Z,30.20
2022-08-30T12:58:58.651Z,30.03
2022-08-30T13:01:37.953Z,29.78
2022-08-30T13:04:22.998Z,29.42
2022-08-30T13:07:02.325Z,29.16
2022-08-30T13:09:44.163Z,28.92
2022-08-30T13:12:27.591Z,28.92
2022-08-30T13:15:21.919Z,29.07
2022-08-30T13:18:26.991Z,29.25
2022-08-30T13:21:28.330Z,29.32
2022-08-30T13:24:05.695Z,29.22
2022-08-30T13:26:41.113Z,29.10
2022-08-30T13:29:19.645Z,29.05
2022-08-30T13:31:52.143Z,29.01
2022-08-30T13:34:24.947Z,28.88
2022-08-30T13:37:01.179Z,28.71
2022-08-30T13:39:34.092Z,28.53
2022-08-30T13:44:43.646Z,28.41
2022-08-30T13:47:33.070Z,28.32
2022-08-30T13:49:52.823Z,28.19
2022-08-30T13:52:26.008Z,28.07
2022-08-30T13:54:58.676Z,28.12
2022-08-30T14:00:28.259Z,28.48
2022-08-30T14:03:01.973Z,28.59
2022-08-30T14:05:49.319Z,28.61
2022-08-30T14:10:51.555Z,28.56
2022-08-30T14:13:24.035Z,28.56
2022-08-30T14:18:32.259Z,28.29
2022-08-30T14:21:04.798Z,28.24
2022-08-30T14:23:38.087Z,28.13
2022-08-30T14:26:21.979Z,28.10
2022-08-30T14:28:54.949Z,28.17
2022-08-30T14:31:27.656Z,28.14
2022-08-30T14:34:04.220Z,28.04
2022-08-30T14:36:39.454Z,28.01
2022-08-30T14:39:16.010Z,28.00
2022-08-30T14:41:52.051Z,28.02
2022-08-30T14:44:25.138Z,27.96
2022-08-30T14:46:58.231Z,27.87
2022-08-30T14:49:32.677Z,27.83
2022-08-30T14:52:06.726Z,27.81
2022-08-30T14:54:40.432Z,27.81
2022-08-30T14:57:14.036Z,27.81
2022-08-30T14:59:48.613Z,27.73
2022-08-30T15:02:26.919Z,27.69
2022-08-30T15:04:56.824Z,27.67
2022-08-30T15:07:29.893Z,27.66
2022-08-30T15:10:02.474Z,27.61
2022-08-30T15:12:35.718Z,27.50
2022-08-30T15:15:28.998Z,27.44
2022-08-30T15:18:01.794Z,27.39
2022-08-30T15:20:34.853Z,27.35
2022-08-30T15:23:08.476Z,27.29
2022-08-30T15:25:42.423Z,27.23
2022-08-30T15:28:15.928Z,27.16
2022-08-30T15:30:50.363Z,27.07
2022-08-30T15:33:24.297Z,26.96
2022-08-30T15:35:57.095Z,26.86
2022-08-30T15:38:31.252Z,26.81
2022-08-30T15:41:07.974Z,26.76
2022-08-30T15:43:42.284Z,26.74
2022-08-30T15:46:30.917Z,26.71
2022-08-30T15:49:21.752Z,26.66
2022-08-30T15:51:54.730Z,26.59
2022-08-30T15:54:27.760Z,26.52
2022-08-30T15:57:01.440Z,26.46
2022-08-30T15:59:35.443Z,26.42
2022-08-30T16:02:08.876Z,26.41
2022-08-30T16:04:42.020Z,26.36
2022-08-30T16:07:15.189Z,26.31
2022-08-30T16:09:49.392Z,26.24
2022-08-30T16:12:23.910Z,26.19
2022-08-30T16:14:56.303Z,26.11
2022-08-30T16:17:28.752Z,26.06
2022-08-30T16:20:04.118Z,26.02
2022-08-30T16:22:37.519Z,25.95
2022-08-30T16:25:11.457Z,25.88
2022-08-30T16:27:45.375Z,25.85
2022-08-30T16:30:19.620Z,25.80
2022-08-30T16:32:52.059Z,25.74
2022-08-30T16:35:24.645Z,25.66
2022-08-30T16:37:59.415Z,25.61
2022-08-30T16:40:33.301Z,25.57
2022-08-30T16:43:09.087Z,25.51
2022-08-30T16:45:43.030Z,25.44
2022-08-30T16:48:16.699Z,25.39
2022-08-30T16:50:49.729Z,25.36
2022-08-30T16:53:23.359Z,25.30
2022-08-30T16:55:57.344Z,25.23
2022-08-30T16:58:30.104Z,25.19
2022-08-30T17:01:02.925Z,25.12
2022-08-30T17:03:36.406Z,25.06
2022-08-30T17:06:09.259Z,25.01
2022-08-30T17:08:44.010Z,24.96
2022-08-30T17:11:17.325Z,24.92
2022-08-30T17:13:51.112Z,24.89
2022-08-30T17:16:28.061Z,24.85
2022-08-30T17:19:00.790Z,24.78
2022-08-30T17:21:34.697Z,24.73
2022-08-30T17:24:09.762Z,24.67
2022-08-30T17:26:42.819Z,24.62
2022-08-30T17:29:15.916Z,24.56
2022-08-30T17:31:50.984Z,24.49
2022-08-30T17:34:24.358Z,24.44
2022-08-30T17:37:00.207Z,24.39
2022-08-30T17:39:32.990Z,24.35
2022-08-30T17:42:05.848Z,24.32
2022-08-30T17:44:42.392Z,24.28
2022-08-30T17:47:12.269Z,24.26
2022-08-30T17:49:44.914Z,24.25
2022-08-30T17:52:18.649Z,24.18
2022-08-30T17:54:52.042Z,24.15
2022-08-30T17:57:24.797Z,24.13
2022-08-30T17:59:58.050Z,24.14
2022-08-30T18:02:30.640Z,24.17
2022-08-30T18:05:04.924Z,24.16
2022-08-30T18:07:38.353Z,24.15
2022-08-30T18:10:13.437Z,24.12
2022-08-30T18:12:49.305Z,24.12
2022-08-30T18:15:21.390Z,24.17
2022-08-30T18:17:53.661Z,24.19
2022-08-30T18:20:27.230Z,24.20
2022-08-30T18:23:02.782Z,24.18
2022-08-30T18:25:36.007Z,24.18
2022-08-30T18:28:12.507Z,24.17
2022-08-30T18:30:47.398Z,24.17
2022-08-30T18:33:21.263Z,24.18
2022-08-30T18:35:53.860Z,24.22
2022-08-30T18:38:26.431Z,24.26
2022-08-30T18:41:02.529Z,24.27
2022-08-30T18:43:35.684Z,24.27
2022-08-30T18:46:10.563Z,24.24
2022-08-30T18:48:45.167Z,24.22
2022-08-30T18:51:21.379Z,24.19
2022-08-30T18:53:56.344Z,24.16
2022-08-30T18:56:28.739Z,24.13
2022-08-30T18:59:02.826Z,24.12
2022-08-30T19:01:37.698Z,24.07
2022-08-30T19:04:22.337Z,24.05
2022-08-30T19:06:47.551Z,24.04
2022-08-30T19:09:21.008Z,24.03
2022-08-30T19:11:53.696Z,24.01
2022-08-30T19:14:28.066Z,23.98
2022-08-30T19:17:06.488Z,23.92
2022-08-30T19:19:48.372Z,23.82
2022-08-30T19:22:13.985Z,23.73
2022-08-30T19:24:51.327Z,23.64
2022-08-30T19:27:37.551Z,23.59
2022-08-30T19:29:58.322Z,23.53
2022-08-30T19:32:31.465Z,23.47
2022-08-30T19:35:04.151Z,23.41
2022-08-30T19:37:37.393Z,23.37
2022-08-30T19:40:14.415Z,23.35
2022-08-30T19:42:48.101Z,23.32
2022-08-30T19:45:23.826Z,23.29
2022-08-30T19:47:57.910Z,23.25
2022-08-30T19:50:30.415Z,23.21
2022-08-30T19:53:03.729Z,23.16
2022-08-30T19:55:37.354Z,23.12
2022-08-30T19:58:10.517Z,23.09
2022-08-30T20:00:54.566Z,23.05
2022-08-30T20:03:20.309Z,23.02
2022-08-30T20:05:54.097Z,22.98
2022-08-30T20:08:26.836Z,22.98
2022-08-30T20:11:01.560Z,22.96
2022-08-30T20:13:34.421Z,22.94
2022-08-30T20:16:07.675Z,22.92
2022-08-30T20:18:42.672Z,22.85
2022-08-30T20:21:16.705Z,22.83
2022-08-30T20:23:50.207Z,22.81
2022-08-30T20:26:27.414Z,22.79
2022-08-30T20:28:59.822Z,22.77
2022-08-30T20:31:34.239Z,22.75
2022-08-30T20:34:06.942Z,22.71
2022-08-30T20:36:40.601Z,22.68
2022-08-30T20:39:17.415Z,22.67
2022-08-30T20:41:50.276Z,22.68
2022-08-30T20:44:24.055Z,22.65
2022-08-30T20:46:58.092Z,22.64
2022-08-30T20:49:31.000Z,22.61
2022-08-30T20:52:04.980Z,22.60
2022-08-30T20:54:38.490Z,22.62
2022-08-30T20:57:11.033Z,22.63
2022-08-30T20:59:45.486Z,22.59
2022-08-30T21:02:19.062Z,22.53
2022-08-30T21:04:51.626Z,22.57
2022-08-30T21:07:24.302Z,22.61
2022-08-30T21:09:56.938Z,22.60
2022-08-30T21:12:30.855Z,22.54
2022-08-30T21:15:26.976Z,22.46
2022-08-30T21:17:38.723Z,22.36
2022-08-30T21:20:13.597Z,22.24
2022-08-30T21:22:46.314Z,22.12
2022-08-30T21:25:19.964Z,22.03
2022-08-30T21:27:53.859Z,21.98
2022-08-30T21:30:26.818Z,21.96
2022-08-30T21:33:00.431Z,21.94
2022-08-30T21:35:52.398Z,21.93
2022-08-30T21:38:25.177Z,21.89
2022-08-30T21:40:57.569Z,21.84
2022-08-30T21:43:30.046Z,21.80
2022-08-30T21:46:09.471Z,21.83
2022-08-30T21:48:43.215Z,21.87
2022-08-30T21:51:15.920Z,21.96
2022-08-30T21:53:49.468Z,22.03
2022-08-30T21:56:23.590Z,22.07
2022-08-30T21:58:57.208Z,22.15
2022-08-30T22:01:31.001Z,22.14
2022-08-30T22:04:04.850Z,22.13
2022-08-30T22:06:38.502Z,22.07
2022-08-30T22:09:14.097Z,22.01
2022-08-30T22:11:47.599Z,22.02
2022-08-30T22:14:23.551Z,22.05
2022-08-30T22:16:56.785Z,22.06
2022-08-30T22:19:33.808Z,22.07
2022-08-30T22:22:04.015Z,22.07
2022-08-30T22:24:36.947Z,22.06
2022-08-30T22:27:10.127Z,22.05
2022-08-30T22:29:42.690Z,22.08
2022-08-30T22:32:15.126Z,22.12
2022-08-30T22:34:48.063Z,22.13
2022-08-30T22:37:21.705Z,22.06
2022-08-30T22:39:54.978Z,21.92
2022-08-30T22:42:28.155Z,21.82
2022-08-30T22:45:00.802Z,21.78
2022-08-30T22:47:33.544Z,21.80
2022-08-30T22:50:06.821Z,21.86
2022-08-30T22:55:22.373Z,21.75
2022-08-30T22:57:55.507Z,21.77
2022-08-30T23:00:28.213Z,21.81
2022-08-30T23:03:00.931Z,21.81
2022-08-30T23:05:33.638Z,21.78
2022-08-30T23:08:08.321Z,21.69
2022-08-30T23:10:42.410Z,21.68
2022-08-30T23:13:15.352Z,21.73
2022-08-30T23:15:48.062Z,21.72
2022-08-30T23:18:20.637Z,21.70
2022-08-30T23:20:53.526Z,21.53
2022-08-30T23:23:44.121Z,21.49
2022-08-30T23:26:37.386Z,21.52
2022-08-30T23:29:26.231Z,21.53
2022-08-30T23:32:17.183Z,21.58
2022-08-30T23:35:07.560Z,21.57
2022-08-30T23:37:58.725Z,21.51
2022-08-30T23:40:49.385Z,21.44
2022-08-30T23:43:39.593Z,21.38
2022-08-30T23:46:30.652Z,21.38
2022-08-30T23:49:21.421Z,21.39
2022-08-30T23:52:12.400Z,21.38
2022-08-30T23:55:02.507Z,21.33
2022-08-30T23:57:53.257Z,21.30
